sensor_id;sensor_type;location;lat;lon;timestamp;P1;durP1;ratioP1;P2;durP2;ratioP2
9156;SDS011;4613;48.392;9.998;2023-06-26T00:00:21;4.50;;;3.60;;
9156;SDS011;4613;48.392;9.998;2023-06-26T00:03:11;4.60;;;3.37;;
9156;SDS011;4613;48.392;9.998;2023-06-26T00:06:03;3.90;;;3.27;;
9156;SDS011;4613;48.392;9.998;2023-06-26T00:08:52;3.77;;;3.40;;
9156;SDS011;4613;48.392;9.998;2023-06-26T00:11:42;4.27;;;3.60;;
9156;SDS011;4613;48.392;9.998;2023-06-26T00:14:31;4.10;;;3.30;;
9156;SDS011;4613;48.392;9.998;2023-06-26T00:17:21;4.00;;;3.40;;
9156;SDS011;4613;48.392;9.998;2023-06-26T00:20:10;3.70;;;3.07;;
9156;SDS011;4613;48.392;9.998;2023-06-26T00:23:03;5.53;;;3.67;;
9156;SDS011;4613;48.392;9.998;2023-06-26T00:25:56;3.77;;;3.23;;
9156;SDS011;4613;48.392;9.998;2023-06-26T00:28:45;4.80;;;3.30;;
9156;SDS011;4613;48.392;9.998;2023-06-26T00:31:34;4.17;;;3.60;;
9156;SDS011;4613;48.392;9.998;2023-06-26T00:34:24;4.23;;;3.50;;
9156;SDS011;4613;48.392;9.998;2023-06-26T00:37:13;3.60;;;3.30;;
9156;SDS011;4613;48.392;9.998;2023-06-26T00:40:02;4.13;;;3.13;;
9156;SDS011;4613;48.392;9.998;2023-06-26T00:42:55;3.77;;;3.37;;
9156;SDS011;4613;48.392;9.998;2023-06-26T00:45:44;4.13;;;3.43;;
9156;SDS011;4613;48.392;9.998;2023-06-26T00:48:34;3.77;;;3.13;;
9156;SDS011;4613;48.392;9.998;2023-06-26T00:51:23;5.53;;;3.43;;
9156;SDS011;4613;48.392;9.998;2023-06-26T00:54:13;3.77;;;3.23;;
9156;SDS011;4613;48.392;9.998;2023-06-26T00:57:08;4.17;;;3.10;;
9156;SDS011;4613;48.392;9.998;2023-06-26T00:59:57;3.53;;;2.93;;
9156;SDS011;4613;48.392;9.998;2023-06-26T01:02:47;3.80;;;3.00;;
9156;SDS011;4613;48.392;9.998;2023-06-26T01:05:36;3.47;;;3.17;;
9156;SDS011;4613;48.392;9.998;2023-06-26T01:08:28;3.93;;;3.23;;
9156;SDS011;4613;48.392;9.998;2023-06-26T01:11:18;4.03;;;3.23;;
9156;SDS011;4613;48.392;9.998;2023-06-26T01:14:07;3.97;;;3.23;;
9156;SDS011;4613;48.392;9.998;2023-06-26T01:16:58;5.00;;;3.20;;
9156;SDS011;4613;48.392;9.998;2023-06-26T01:19:49;3.93;;;3.37;;
9156;SDS011;4613;48.392;9.998;2023-06-26T01:29:08;4.77;;;3.30;;
9156;SDS011;4613;48.392;9.998;2023-06-26T01:31:59;3.83;;;3.20;;
9156;SDS011;4613;48.392;9.998;2023-06-26T01:34:51;5.13;;;3.43;;
9156;SDS011;4613;48.392;9.998;2023-06-26T01:37:42;3.63;;;2.90;;
9156;SDS011;4613;48.392;9.998;2023-06-26T01:40:31;5.30;;;3.67;;
9156;SDS011;4613;48.392;9.998;2023-06-26T01:43:24;3.50;;;3.03;;
9156;SDS011;4613;48.392;9.998;2023-06-26T01:49:26;6.00;;;3.50;;
9156;SDS011;4613;48.392;9.998;2023-06-26T01:58:08;3.90;;;2.87;;
9156;SDS011;4613;48.392;9.998;2023-06-26T02:00:58;6.23;;;3.53;;
9156;SDS011;4613;48.392;9.998;2023-06-26T02:03:49;4.07;;;3.30;;
9156;SDS011;4613;48.392;9.998;2023-06-26T02:06:38;5.10;;;3.20;;
9156;SDS011;4613;48.392;9.998;2023-06-26T02:09:27;7.27;;;3.43;;
9156;SDS011;4613;48.392;9.998;2023-06-26T02:12:16;3.67;;;3.10;;
9156;SDS011;4613;48.392;9.998;2023-06-26T02:15:06;4.10;;;3.20;;
9156;SDS011;4613;48.392;9.998;2023-06-26T02:17:56;6.77;;;3.50;;
9156;SDS011;4613;48.392;9.998;2023-06-26T02:20:45;4.57;;;3.53;;
9156;SDS011;4613;48.392;9.998;2023-06-26T02:23:34;3.80;;;3.10;;
9156;SDS011;4613;48.392;9.998;2023-06-26T02:26:23;4.00;;;3.10;;
9156;SDS011;4613;48.392;9.998;2023-06-26T02:29:13;3.90;;;3.00;;
9156;SDS011;4613;48.392;9.998;2023-06-26T02:32:03;5.00;;;3.33;;
9156;SDS011;4613;48.392;9.998;2023-06-26T02:34:52;3.87;;;3.10;;
9156;SDS011;4613;48.392;9.998;2023-06-26T02:37:42;4.53;;;3.30;;
9156;SDS011;4613;48.392;9.998;2023-06-26T02:40:32;5.00;;;3.47;;
9156;SDS011;4613;48.392;9.998;2023-06-26T02:43:22;3.90;;;3.10;;
9156;SDS011;4613;48.392;9.998;2023-06-26T02:46:12;3.37;;;2.93;;
9156;SDS011;4613;48.392;9.998;2023-06-26T02:49:02;4.30;;;3.60;;
9156;SDS011;4613;48.392;9.998;2023-06-26T02:51:51;4.63;;;3.33;;
9156;SDS011;4613;48.392;9.998;2023-06-26T02:54:47;3.87;;;2.90;;
9156;SDS011;4613;48.392;9.998;2023-06-26T02:57:36;5.20;;;3.27;;
9156;SDS011;4613;48.392;9.998;2023-06-26T03:00:25;4.60;;;3.23;;
9156;SDS011;4613;48.392;9.998;2023-06-26T03:03:17;5.60;;;3.70;;
9156;SDS011;4613;48.392;9.998;2023-06-26T03:06:07;4.93;;;3.90;;
9156;SDS011;4613;48.392;9.998;2023-06-26T03:08:57;5.60;;;3.90;;
9156;SDS011;4613;48.392;9.998;2023-06-26T03:11:49;4.23;;;3.60;;
9156;SDS011;4613;48.392;9.998;2023-06-26T03:14:38;6.00;;;3.50;;
9156;SDS011;4613;48.392;9.998;2023-06-26T03:17:27;6.30;;;3.80;;
9156;SDS011;4613;48.392;9.998;2023-06-26T03:20:22;6.60;;;3.87;;
9156;SDS011;4613;48.392;9.998;2023-06-26T03:23:16;4.33;;;3.53;;
9156;SDS011;4613;48.392;9.998;2023-06-26T03:26:05;5.67;;;4.03;;
9156;SDS011;4613;48.392;9.998;2023-06-26T03:28:58;5.07;;;3.90;;
9156;SDS011;4613;48.392;9.998;2023-06-26T03:31:47;4.77;;;3.90;;
9156;SDS011;4613;48.392;9.998;2023-06-26T03:34:37;4.93;;;3.60;;
9156;SDS011;4613;48.392;9.998;2023-06-26T03:37:28;5.20;;;4.00;;
9156;SDS011;4613;48.392;9.998;2023-06-26T03:40:18;5.90;;;4.00;;
9156;SDS011;4613;48.392;9.998;2023-06-26T03:43:07;4.87;;;3.73;;
9156;SDS011;4613;48.392;9.998;2023-06-26T03:46:07;4.17;;;3.27;;
9156;SDS011;4613;48.392;9.998;2023-06-26T03:48:57;6.20;;;4.60;;
9156;SDS011;4613;48.392;9.998;2023-06-26T03:51:46;5.30;;;3.70;;
9156;SDS011;4613;48.392;9.998;2023-06-26T03:54:36;5.57;;;3.53;;
9156;SDS011;4613;48.392;9.998;2023-06-26T03:57:25;6.40;;;3.43;;
9156;SDS011;4613;48.392;9.998;2023-06-26T04:00:15;6.10;;;4.07;;
9156;SDS011;4613;48.392;9.998;2023-06-26T04:03:04;5.80;;;3.83;;
9156;SDS011;4613;48.392;9.998;2023-06-26T04:05:53;4.97;;;3.47;;
9156;SDS011;4613;48.392;9.998;2023-06-26T04:08:43;5.83;;;4.03;;
9156;SDS011;4613;48.392;9.998;2023-06-26T04:11:32;6.80;;;4.07;;
9156;SDS011;4613;48.392;9.998;2023-06-26T04:14:21;5.13;;;4.00;;
9156;SDS011;4613;48.392;9.998;2023-06-26T04:17:10;5.37;;;4.17;;
9156;SDS011;4613;48.392;9.998;2023-06-26T04:20:00;5.87;;;4.30;;
9156;SDS011;4613;48.392;9.998;2023-06-26T04:22:50;5.37;;;4.20;;
9156;SDS011;4613;48.392;9.998;2023-06-26T04:25:39;5.47;;;4.03;;
9156;SDS011;4613;48.392;9.998;2023-06-26T04:28:28;5.20;;;3.90;;
9156;SDS011;4613;48.392;9.998;2023-06-26T04:31:17;5.93;;;4.27;;
9156;SDS011;4613;48.392;9.998;2023-06-26T04:34:06;5.93;;;4.13;;
9156;SDS011;4613;48.392;9.998;2023-06-26T04:36:55;7.03;;;4.10;;
9156;SDS011;4613;48.392;9.998;2023-06-26T04:39:45;5.07;;;3.90;;
9156;SDS011;4613;48.392;9.998;2023-06-26T04:42:34;6.50;;;3.90;;
9156;SDS011;4613;48.392;9.998;2023-06-26T04:45:23;7.23;;;3.80;;
9156;SDS011;4613;48.392;9.998;2023-06-26T04:48:12;6.10;;;4.43;;
9156;SDS011;4613;48.392;9.998;2023-06-26T04:51:01;6.10;;;4.30;;
9156;SDS011;4613;48.392;9.998;2023-06-26T04:53:50;9.77;;;4.13;;
9156;SDS011;4613;48.392;9.998;2023-06-26T04:56:40;5.77;;;4.17;;
9156;SDS011;4613;48.392;9.998;2023-06-26T04:59:29;6.53;;;4.27;;
9156;SDS011;4613;48.392;9.998;2023-06-26T05:02:19;6.60;;;4.60;;
9156;SDS011;4613;48.392;9.998;2023-06-26T05:05:09;4.90;;;4.00;;
9156;SDS011;4613;48.392;9.998;2023-06-26T05:07:58;5.43;;;4.30;;
9156;SDS011;4613;48.392;9.998;2023-06-26T05:11:05;5.93;;;4.03;;
9156;SDS011;4613;48.392;9.998;2023-06-26T05:13:54;8.07;;;4.43;;
9156;SDS011;4613;48.392;9.998;2023-06-26T05:16:43;5.90;;;4.50;;
9156;SDS011;4613;48.392;9.998;2023-06-26T05:19:33;5.67;;;4.13;;
9156;SDS011;4613;48.392;9.998;2023-06-26T05:22:22;6.33;;;4.50;;
9156;SDS011;4613;48.392;9.998;2023-06-26T05:25:12;7.03;;;4.70;;
9156;SDS011;4613;48.392;9.998;2023-06-26T05:28:03;6.57;;;4.53;;
9156;SDS011;4613;48.392;9.998;2023-06-26T05:30:58;7.77;;;4.60;;
9156;SDS011;4613;48.392;9.998;2023-06-26T05:33:48;6.87;;;4.57;;
9156;SDS011;4613;48.392;9.998;2023-06-26T05:36:41;9.13;;;4.70;;
9156;SDS011;4613;48.392;9.998;2023-06-26T05:39:32;7.90;;;4.80;;
9156;SDS011;4613;48.392;9.998;2023-06-26T05:42:21;9.87;;;5.03;;
9156;SDS011;4613;48.392;9.998;2023-06-26T05:45:11;6.13;;;4.53;;
9156;SDS011;4613;48.392;9.998;2023-06-26T05:48:00;6.80;;;4.40;;
9156;SDS011;4613;48.392;9.998;2023-06-26T05:50:50;6.10;;;4.77;;
9156;SDS011;4613;48.392;9.998;2023-06-26T05:53:40;5.13;;;4.13;;
9156;SDS011;4613;48.392;9.998;2023-06-26T05:56:29;6.20;;;4.30;;
9156;SDS011;4613;48.392;9.998;2023-06-26T05:59:19;6.60;;;4.30;;
9156;SDS011;4613;48.392;9.998;2023-06-26T06:02:10;5.97;;;4.30;;
9156;SDS011;4613;48.392;9.998;2023-06-26T06:05:00;6.43;;;4.37;;
9156;SDS011;4613;48.392;9.998;2023-06-26T06:07:49;7.00;;;4.87;;
9156;SDS011;4613;48.392;9.998;2023-06-26T06:10:39;5.87;;;4.30;;
9156;SDS011;4613;48.392;9.998;2023-06-26T06:13:28;4.83;;;4.10;;
9156;SDS011;4613;48.392;9.998;2023-06-26T06:16:18;6.17;;;4.10;;
9156;SDS011;4613;48.392;9.998;2023-06-26T06:19:07;5.30;;;4.17;;
9156;SDS011;4613;48.392;9.998;2023-06-26T06:21:59;4.57;;;3.73;;
9156;SDS011;4613;48.392;9.998;2023-06-26T06:24:49;7.13;;;4.23;;
9156;SDS011;4613;48.392;9.998;2023-06-26T06:27:39;4.27;;;3.80;;
9156;SDS011;4613;48.392;9.998;2023-06-26T06:30:28;7.00;;;4.43;;
9156;SDS011;4613;48.392;9.998;2023-06-26T06:33:18;6.23;;;4.13;;
9156;SDS011;4613;48.392;9.998;2023-06-26T06:36:07;7.33;;;4.13;;
9156;SDS011;4613;48.392;9.998;2023-06-26T06:38:56;4.53;;;3.63;;
9156;SDS011;4613;48.392;9.998;2023-06-26T06:41:45;7.07;;;4.43;;
9156;SDS011;4613;48.392;9.998;2023-06-26T06:44:35;6.00;;;3.87;;
9156;SDS011;4613;48.392;9.998;2023-06-26T06:47:24;5.00;;;3.93;;
9156;SDS011;4613;48.392;9.998;2023-06-26T06:50:13;4.30;;;3.77;;
9156;SDS011;4613;48.392;9.998;2023-06-26T06:53:05;5.60;;;3.57;;
9156;SDS011;4613;48.392;9.998;2023-06-26T06:55:54;4.40;;;4.00;;
9156;SDS011;4613;48.392;9.998;2023-06-26T06:58:43;5.93;;;4.27;;
9156;SDS011;4613;48.392;9.998;2023-06-26T07:01:35;4.60;;;3.70;;
9156;SDS011;4613;48.392;9.998;2023-06-26T07:04:24;5.27;;;4.10;;
9156;SDS011;4613;48.392;9.998;2023-06-26T07:07:18;4.83;;;3.60;;
9156;SDS011;4613;48.392;9.998;2023-06-26T07:10:08;7.13;;;4.07;;
9156;SDS011;4613;48.392;9.998;2023-06-26T07:12:59;4.23;;;3.63;;
9156;SDS011;4613;48.392;9.998;2023-06-26T07:15:49;4.57;;;3.70;;
9156;SDS011;4613;48.392;9.998;2023-06-26T07:18:38;4.93;;;3.67;;
9156;SDS011;4613;48.392;9.998;2023-06-26T07:21:27;6.77;;;4.20;;
9156;SDS011;4613;48.392;9.998;2023-06-26T07:24:17;4.73;;;4.20;;
9156;SDS011;4613;48.392;9.998;2023-06-26T07:27:06;4.53;;;3.87;;
9156;SDS011;4613;48.392;9.998;2023-06-26T07:29:55;3.70;;;3.37;;
9156;SDS011;4613;48.392;9.998;2023-06-26T07:32:44;3.93;;;3.40;;
9156;SDS011;4613;48.392;9.998;2023-06-26T07:35:34;4.03;;;3.50;;
9156;SDS011;4613;48.392;9.998;2023-06-26T07:38:23;4.23;;;3.60;;
9156;SDS011;4613;48.392;9.998;2023-06-26T07:41:12;3.80;;;3.20;;
9156;SDS011;4613;48.392;9.998;2023-06-26T07:44:02;6.40;;;3.70;;
9156;SDS011;4613;48.392;9.998;2023-06-26T07:46:52;3.30;;;3.00;;
9156;SDS011;4613;48.392;9.998;2023-06-26T07:49:41;4.33;;;3.53;;
9156;SDS011;4613;48.392;9.998;2023-06-26T07:52:30;4.70;;;3.40;;
9156;SDS011;4613;48.392;9.998;2023-06-26T07:55:20;5.13;;;3.50;;
9156;SDS011;4613;48.392;9.998;2023-06-26T07:58:09;4.60;;;3.50;;
9156;SDS011;4613;48.392;9.998;2023-06-26T08:00:58;4.20;;;3.17;;
9156;SDS011;4613;48.392;9.998;2023-06-26T08:03:47;4.20;;;3.57;;
9156;SDS011;4613;48.392;9.998;2023-06-26T08:06:36;4.57;;;3.60;;
9156;SDS011;4613;48.392;9.998;2023-06-26T08:09:29;3.20;;;2.90;;
9156;SDS011;4613;48.392;9.998;2023-06-26T08:12:18;4.20;;;3.50;;
9156;SDS011;4613;48.392;9.998;2023-06-26T08:15:08;3.60;;;3.30;;
9156;SDS011;4613;48.392;9.998;2023-06-26T08:17:57;3.43;;;3.10;;
9156;SDS011;4613;48.392;9.998;2023-06-26T08:20:47;4.97;;;3.40;;
9156;SDS011;4613;48.392;9.998;2023-06-26T08:23:35;4.30;;;3.40;;
9156;SDS011;4613;48.392;9.998;2023-06-26T08:26:24;3.97;;;2.93;;
9156;SDS011;4613;48.392;9.998;2023-06-26T08:29:14;3.30;;;3.00;;
9156;SDS011;4613;48.392;9.998;2023-06-26T08:32:04;3.27;;;2.97;;
9156;SDS011;4613;48.392;9.998;2023-06-26T08:34:53;3.50;;;3.20;;
9156;SDS011;4613;48.392;9.998;2023-06-26T08:37:43;3.70;;;3.30;;
9156;SDS011;4613;48.392;9.998;2023-06-26T08:40:32;3.77;;;3.07;;
9156;SDS011;4613;48.392;9.998;2023-06-26T08:43:21;3.37;;;3.07;;
9156;SDS011;4613;48.392;9.998;2023-06-26T08:46:10;3.57;;;3.27;;
9156;SDS011;4613;48.392;9.998;2023-06-26T08:52:41;3.30;;;3.00;;
9156;SDS011;4613;48.392;9.998;2023-06-26T08:55:35;3.10;;;2.80;;
9156;SDS011;4613;48.392;9.998;2023-06-26T08:58:29;3.37;;;3.07;;
9156;SDS011;4613;48.392;9.998;2023-06-26T09:01:20;3.47;;;3.17;;
9156;SDS011;4613;48.392;9.998;2023-06-26T09:04:09;3.30;;;3.00;;
9156;SDS011;4613;48.392;9.998;2023-06-26T09:06:59;4.03;;;3.23;;
9156;SDS011;4613;48.392;9.998;2023-06-26T09:09:49;3.20;;;2.90;;
9156;SDS011;4613;48.392;9.998;2023-06-26T09:12:38;3.20;;;2.90;;
9156;SDS011;4613;48.392;9.998;2023-06-26T09:15:36;3.70;;;2.80;;
9156;SDS011;4613;48.392;9.998;2023-06-26T09:18:32;3.57;;;2.83;;
9156;SDS011;4613;48.392;9.998;2023-06-26T09:21:21;3.13;;;2.90;;
9156;SDS011;4613;48.392;9.998;2023-06-26T09:24:12;3.60;;;3.20;;
9156;SDS011;4613;48.392;9.998;2023-06-26T09:27:02;3.07;;;2.77;;
9156;SDS011;4613;48.392;9.998;2023-06-26T09:29:52;3.20;;;2.90;;
9156;SDS011;4613;48.392;9.998;2023-06-26T09:32:41;3.13;;;2.83;;
9156;SDS011;4613;48.392;9.998;2023-06-26T09:35:30;2.67;;;2.47;;
9156;SDS011;4613;48.392;9.998;2023-06-26T09:38:20;3.30;;;3.00;;
9156;SDS011;4613;48.392;9.998;2023-06-26T09:41:09;4.10;;;3.70;;
9156;SDS011;4613;48.392;9.998;2023-06-26T09:44:00;3.60;;;3.30;;
9156;SDS011;4613;48.392;9.998;2023-06-26T09:46:51;3.47;;;2.80;;
9156;SDS011;4613;48.392;9.998;2023-06-26T09:49:43;2.90;;;2.70;;
9156;SDS011;4613;48.392;9.998;2023-06-26T09:52:33;3.00;;;2.70;;
9156;SDS011;4613;48.392;9.998;2023-06-26T09:55:26;2.60;;;2.40;;
9156;SDS011;4613;48.392;9.998;2023-06-26T09:58:15;2.57;;;2.37;;
9156;SDS011;4613;48.392;9.998;2023-06-26T10:01:06;2.80;;;2.60;;
9156;SDS011;4613;48.392;9.998;2023-06-26T10:03:57;2.60;;;2.40;;
9156;SDS011;4613;48.392;9.998;2023-06-26T10:06:47;2.73;;;2.53;;
9156;SDS011;4613;48.392;9.998;2023-06-26T10:09:40;2.77;;;2.57;;
9156;SDS011;4613;48.392;9.998;2023-06-26T10:12:31;2.40;;;2.20;;
9156;SDS011;4613;48.392;9.998;2023-06-26T10:15:20;2.70;;;2.50;;
9156;SDS011;4613;48.392;9.998;2023-06-26T10:18:12;2.40;;;2.20;;
9156;SDS011;4613;48.392;9.998;2023-06-26T10:21:05;2.67;;;2.47;;
9156;SDS011;4613;48.392;9.998;2023-06-26T10:23:56;2.50;;;2.30;;
9156;SDS011;4613;48.392;9.998;2023-06-26T10:26:46;3.47;;;2.60;;
9156;SDS011;4613;48.392;9.998;2023-06-26T10:29:40;2.70;;;2.40;;
9156;SDS011;4613;48.392;9.998;2023-06-26T10:32:31;2.60;;;2.40;;
9156;SDS011;4613;48.392;9.998;2023-06-26T10:35:21;2.60;;;2.40;;
9156;SDS011;4613;48.392;9.998;2023-06-26T10:38:12;2.77;;;2.50;;
9156;SDS011;4613;48.392;9.998;2023-06-26T10:41:09;3.00;;;2.70;;
9156;SDS011;4613;48.392;9.998;2023-06-26T10:44:10;2.47;;;2.27;;
9156;SDS011;4613;48.392;9.998;2023-06-26T10:47:00;2.40;;;2.20;;
9156;SDS011;4613;48.392;9.998;2023-06-26T10:49:49;2.83;;;2.60;;
9156;SDS011;4613;48.392;9.998;2023-06-26T10:52:38;2.77;;;2.33;;
9156;SDS011;4613;48.392;9.998;2023-06-26T10:55:27;2.70;;;2.50;;
9156;SDS011;4613;48.392;9.998;2023-06-26T11:01:32;2.73;;;2.53;;
9156;SDS011;4613;48.392;9.998;2023-06-26T11:07:29;2.50;;;2.30;;
9156;SDS011;4613;48.392;9.998;2023-06-26T11:10:19;2.77;;;2.50;;
9156;SDS011;4613;48.392;9.998;2023-06-26T11:13:09;3.40;;;2.50;;
9156;SDS011;4613;48.392;9.998;2023-06-26T11:15:59;2.57;;;2.37;;
9156;SDS011;4613;48.392;9.998;2023-06-26T11:18:50;2.80;;;2.60;;
9156;SDS011;4613;48.392;9.998;2023-06-26T11:21:40;2.80;;;2.60;;
9156;SDS011;4613;48.392;9.998;2023-06-26T11:24:29;2.93;;;2.67;;
9156;SDS011;4613;48.392;9.998;2023-06-26T11:27:20;3.23;;;2.93;;
9156;SDS011;4613;48.392;9.998;2023-06-26T11:30:22;2.50;;;2.30;;
9156;SDS011;4613;48.392;9.998;2023-06-26T11:33:13;2.43;;;2.23;;
9156;SDS011;4613;48.392;9.998;2023-06-26T11:36:08;2.53;;;2.33;;
9156;SDS011;4613;48.392;9.998;2023-06-26T11:38:59;2.83;;;2.63;;
9156;SDS011;4613;48.392;9.998;2023-06-26T11:41:50;2.83;;;2.63;;
9156;SDS011;4613;48.392;9.998;2023-06-26T11:44:42;2.57;;;2.37;;
9156;SDS011;4613;48.392;9.998;2023-06-26T11:47:32;2.80;;;2.60;;
9156;SDS011;4613;48.392;9.998;2023-06-26T11:50:22;3.53;;;2.50;;
9156;SDS011;4613;48.392;9.998;2023-06-26T11:53:14;3.43;;;2.60;;
9156;SDS011;4613;48.392;9.998;2023-06-26T11:56:07;3.23;;;2.93;;
9156;SDS011;4613;48.392;9.998;2023-06-26T11:59:11;3.00;;;2.70;;
9156;SDS011;4613;48.392;9.998;2023-06-26T12:02:04;2.83;;;2.63;;
9156;SDS011;4613;48.392;9.998;2023-06-26T12:04:57;2.83;;;2.63;;
9156;SDS011;4613;48.392;9.998;2023-06-26T12:07:47;2.70;;;2.50;;
9156;SDS011;4613;48.392;9.998;2023-06-26T12:10:38;3.20;;;2.90;;
9156;SDS011;4613;48.392;9.998;2023-06-26T12:13:27;2.97;;;2.73;;
9156;SDS011;4613;48.392;9.998;2023-06-26T12:16:16;2.87;;;2.67;;
9156;SDS011;4613;48.392;9.998;2023-06-26T12:19:06;3.03;;;2.73;;
9156;SDS011;4613;48.392;9.998;2023-06-26T12:21:56;2.80;;;2.60;;
9156;SDS011;4613;48.392;9.998;2023-06-26T12:24:46;3.00;;;2.70;;
9156;SDS011;4613;48.392;9.998;2023-06-26T12:27:36;4.30;;;2.97;;
9156;SDS011;4613;48.392;9.998;2023-06-26T12:30:25;2.80;;;2.60;;
9156;SDS011;4613;48.392;9.998;2023-06-26T12:33:14;2.87;;;2.67;;
9156;SDS011;4613;48.392;9.998;2023-06-26T12:36:04;2.93;;;2.70;;
9156;SDS011;4613;48.392;9.998;2023-06-26T12:38:53;3.37;;;2.73;;
9156;SDS011;4613;48.392;9.998;2023-06-26T12:41:44;2.83;;;2.63;;
9156;SDS011;4613;48.392;9.998;2023-06-26T12:44:33;3.40;;;3.10;;
9156;SDS011;4613;48.392;9.998;2023-06-26T12:47:26;3.20;;;2.60;;
9156;SDS011;4613;48.392;9.998;2023-06-26T12:50:17;3.10;;;2.80;;
9156;SDS011;4613;48.392;9.998;2023-06-26T12:53:06;2.67;;;2.47;;
9156;SDS011;4613;48.392;9.998;2023-06-26T12:55:55;4.17;;;2.90;;
9156;SDS011;4613;48.392;9.998;2023-06-26T12:58:44;3.00;;;2.80;;
9156;SDS011;4613;48.392;9.998;2023-06-26T13:01:33;3.10;;;2.80;;
9156;SDS011;4613;48.392;9.998;2023-06-26T13:04:23;3.27;;;2.97;;
9156;SDS011;4613;48.392;9.998;2023-06-26T13:07:12;4.00;;;2.83;;
9156;SDS011;4613;48.392;9.998;2023-06-26T13:10:02;3.20;;;2.90;;
9156;SDS011;4613;48.392;9.998;2023-06-26T13:12:51;7.40;;;3.27;;
9156;SDS011;4613;48.392;9.998;2023-06-26T13:15:40;3.37;;;3.00;;
9156;SDS011;4613;48.392;9.998;2023-06-26T13:18:29;2.90;;;2.70;;
9156;SDS011;4613;48.392;9.998;2023-06-26T13:21:18;3.23;;;2.93;;
9156;SDS011;4613;48.392;9.998;2023-06-26T13:24:07;3.47;;;2.83;;
9156;SDS011;4613;48.392;9.998;2023-06-26T13:26:56;3.10;;;2.90;;
9156;SDS011;4613;48.392;9.998;2023-06-26T13:29:45;3.23;;;2.93;;
9156;SDS011;4613;48.392;9.998;2023-06-26T13:32:35;2.90;;;2.70;;
9156;SDS011;4613;48.392;9.998;2023-06-26T13:35:24;3.23;;;2.90;;
9156;SDS011;4613;48.392;9.998;2023-06-26T13:38:14;3.10;;;2.70;;
9156;SDS011;4613;48.392;9.998;2023-06-26T13:41:03;3.10;;;2.90;;
9156;SDS011;4613;48.392;9.998;2023-06-26T13:43:52;3.70;;;3.00;;
9156;SDS011;4613;48.392;9.998;2023-06-26T13:46:41;3.60;;;3.10;;
9156;SDS011;4613;48.392;9.998;2023-06-26T13:49:31;4.13;;;2.90;;
9156;SDS011;4613;48.392;9.998;2023-06-26T13:52:20;3.10;;;2.90;;
9156;SDS011;4613;48.392;9.998;2023-06-26T13:55:09;3.13;;;2.83;;
9156;SDS011;4613;48.392;9.998;2023-06-26T13:57:59;3.17;;;2.97;;
9156;SDS011;4613;48.392;9.998;2023-06-26T14:00:48;3.50;;;3.20;;
9156;SDS011;4613;48.392;9.998;2023-06-26T14:03:37;4.07;;;3.40;;
9156;SDS011;4613;48.392;9.998;2023-06-26T14:06:27;4.30;;;3.33;;
9156;SDS011;4613;48.392;9.998;2023-06-26T14:09:16;3.63;;;3.10;;
9156;SDS011;4613;48.392;9.998;2023-06-26T14:12:06;3.40;;;3.10;;
9156;SDS011;4613;48.392;9.998;2023-06-26T14:14:56;3.20;;;2.90;;
9156;SDS011;4613;48.392;9.998;2023-06-26T14:17:45;3.37;;;3.07;;
9156;SDS011;4613;48.392;9.998;2023-06-26T14:20:36;3.30;;;2.93;;
9156;SDS011;4613;48.392;9.998;2023-06-26T14:23:25;3.50;;;3.20;;
9156;SDS011;4613;48.392;9.998;2023-06-26T14:26:14;5.13;;;3.20;;
9156;SDS011;4613;48.392;9.998;2023-06-26T14:29:03;4.03;;;3.03;;
9156;SDS011;4613;48.392;9.998;2023-06-26T14:31:52;3.23;;;2.93;;
9156;SDS011;4613;48.392;9.998;2023-06-26T14:34:41;3.00;;;2.80;;
9156;SDS011;4613;48.392;9.998;2023-06-26T14:37:30;3.33;;;3.03;;
9156;SDS011;4613;48.392;9.998;2023-06-26T14:40:19;3.70;;;3.20;;
9156;SDS011;4613;48.392;9.998;2023-06-26T14:43:09;4.30;;;3.33;;
9156;SDS011;4613;48.392;9.998;2023-06-26T14:45:59;4.50;;;2.87;;
9156;SDS011;4613;48.392;9.998;2023-06-26T14:48:48;4.63;;;3.03;;
9156;SDS011;4613;48.392;9.998;2023-06-26T14:51:37;4.70;;;3.30;;
9156;SDS011;4613;48.392;9.998;2023-06-26T14:54:27;3.43;;;3.00;;
9156;SDS011;4613;48.392;9.998;2023-06-26T14:57:16;3.50;;;3.20;;
9156;SDS011;4613;48.392;9.998;2023-06-26T15:00:06;3.80;;;3.20;;
9156;SDS011;4613;48.392;9.998;2023-06-26T15:02:56;4.53;;;3.43;;
9156;SDS011;4613;48.392;9.998;2023-06-26T15:05:47;8.33;;;3.57;;
9156;SDS011;4613;48.392;9.998;2023-06-26T15:08:36;3.37;;;3.07;;
9156;SDS011;4613;48.392;9.998;2023-06-26T15:11:26;3.50;;;3.20;;
9156;SDS011;4613;48.392;9.998;2023-06-26T15:14:15;3.90;;;3.50;;
9156;SDS011;4613;48.392;9.998;2023-06-26T15:17:04;3.83;;;3.50;;
9156;SDS011;4613;48.392;9.998;2023-06-26T15:19:53;3.27;;;3.07;;
9156;SDS011;4613;48.392;9.998;2023-06-26T15:22:43;3.23;;;2.93;;
9156;SDS011;4613;48.392;9.998;2023-06-26T15:25:32;3.33;;;2.97;;
9156;SDS011;4613;48.392;9.998;2023-06-26T15:28:23;4.17;;;3.20;;
9156;SDS011;4613;48.392;9.998;2023-06-26T15:31:12;3.40;;;3.10;;
9156;SDS011;4613;48.392;9.998;2023-06-26T15:34:01;3.53;;;2.70;;
9156;SDS011;4613;48.392;9.998;2023-06-26T15:36:50;3.40;;;3.07;;
9156;SDS011;4613;48.392;9.998;2023-06-26T15:39:39;3.50;;;3.07;;
9156;SDS011;4613;48.392;9.998;2023-06-26T15:42:30;3.67;;;2.90;;
9156;SDS011;4613;48.392;9.998;2023-06-26T15:45:20;3.77;;;3.37;;
9156;SDS011;4613;48.392;9.998;2023-06-26T15:48:11;3.00;;;2.80;;
9156;SDS011;4613;48.392;9.998;2023-06-26T15:51:00;3.57;;;3.23;;
9156;SDS011;4613;48.392;9.998;2023-06-26T15:53:49;3.57;;;3.10;;
9156;SDS011;4613;48.392;9.998;2023-06-26T15:56:38;3.80;;;3.07;;
9156;SDS011;4613;48.392;9.998;2023-06-26T15:59:28;3.20;;;2.90;;
9156;SDS011;4613;48.392;9.998;2023-06-26T16:02:17;3.20;;;2.90;;
9156;SDS011;4613;48.392;9.998;2023-06-26T16:05:07;4.43;;;2.87;;
9156;SDS011;4613;48.392;9.998;2023-06-26T16:07:57;3.20;;;2.77;;
9156;SDS011;4613;48.392;9.998;2023-06-26T16:10:46;2.77;;;2.57;;
9156;SDS011;4613;48.392;9.998;2023-06-26T16:13:35;5.90;;;3.07;;
9156;SDS011;4613;48.392;9.998;2023-06-26T16:16:24;3.20;;;2.90;;
9156;SDS011;4613;48.392;9.998;2023-06-26T16:19:13;3.07;;;2.73;;
9156;SDS011;4613;48.392;9.998;2023-06-26T16:22:04;2.97;;;2.77;;
9156;SDS011;4613;48.392;9.998;2023-06-26T16:24:54;2.83;;;2.63;;
9156;SDS011;4613;48.392;9.998;2023-06-26T16:27:43;3.00;;;2.73;;
9156;SDS011;4613;48.392;9.998;2023-06-26T16:30:33;3.00;;;2.70;;
9156;SDS011;4613;48.392;9.998;2023-06-26T16:33:22;3.63;;;3.20;;
9156;SDS011;4613;48.392;9.998;2023-06-26T16:36:11;3.30;;;2.90;;
9156;SDS011;4613;48.392;9.998;2023-06-26T16:39:01;4.60;;;2.40;;
9156;SDS011;4613;48.392;9.998;2023-06-26T16:41:50;3.07;;;2.60;;
9156;SDS011;4613;48.392;9.998;2023-06-26T16:44:42;3.23;;;2.80;;
9156;SDS011;4613;48.392;9.998;2023-06-26T16:47:32;2.60;;;2.40;;
9156;SDS011;4613;48.392;9.998;2023-06-26T16:50:22;2.87;;;2.67;;
9156;SDS011;4613;48.392;9.998;2023-06-26T16:53:12;2.53;;;2.33;;
9156;SDS011;4613;48.392;9.998;2023-06-26T16:56:01;3.43;;;2.63;;
9156;SDS011;4613;48.392;9.998;2023-06-26T16:58:50;2.60;;;2.10;;
9156;SDS011;4613;48.392;9.998;2023-06-26T17:01:40;2.53;;;2.33;;
9156;SDS011;4613;48.392;9.998;2023-06-26T17:04:29;2.50;;;2.30;;
9156;SDS011;4613;48.392;9.998;2023-06-26T17:07:18;3.17;;;2.20;;
9156;SDS011;4613;48.392;9.998;2023-06-26T17:10:07;2.90;;;2.60;;
9156;SDS011;4613;48.392;9.998;2023-06-26T17:12:57;2.47;;;2.27;;
9156;SDS011;4613;48.392;9.998;2023-06-26T17:15:46;2.40;;;2.20;;
9156;SDS011;4613;48.392;9.998;2023-06-26T17:18:35;2.50;;;2.20;;
9156;SDS011;4613;48.392;9.998;2023-06-26T17:21:24;2.37;;;2.17;;
9156;SDS011;4613;48.392;9.998;2023-06-26T17:24:13;2.17;;;1.97;;
9156;SDS011;4613;48.392;9.998;2023-06-26T17:29:59;2.20;;;2.00;;
9156;SDS011;4613;48.392;9.998;2023-06-26T17:32:49;1.90;;;1.80;;
9156;SDS011;4613;48.392;9.998;2023-06-26T17:35:38;2.50;;;2.10;;
9156;SDS011;4613;48.392;9.998;2023-06-26T17:38:27;2.00;;;1.87;;
9156;SDS011;4613;48.392;9.998;2023-06-26T17:41:18;4.70;;;2.30;;
9156;SDS011;4613;48.392;9.998;2023-06-26T17:44:08;3.13;;;2.50;;
9156;SDS011;4613;48.392;9.998;2023-06-26T17:46:57;2.40;;;2.20;;
9156;SDS011;4613;48.392;9.998;2023-06-26T17:49:46;2.40;;;2.20;;
9156;SDS011;4613;48.392;9.998;2023-06-26T17:52:35;2.87;;;2.50;;
9156;SDS011;4613;48.392;9.998;2023-06-26T17:55:24;2.30;;;2.10;;
9156;SDS011;4613;48.392;9.998;2023-06-26T17:58:14;2.47;;;2.20;;
9156;SDS011;4613;48.392;9.998;2023-06-26T18:01:04;2.27;;;2.07;;
9156;SDS011;4613;48.392;9.998;2023-06-26T18:03:54;2.30;;;2.07;;